Time;durP1;ratioP1;P1;durP2;ratioP2;P2;SDS_P1;SDS_P2;PMS_P1;PMS_P2;Temp;Humidity;BMP_temperature;BMP_pressure;BME280_temperature;BME280_humidity;BME280_pressure;Samples;Min_cycle;Max_cycle;Signal;HPM_P1;HPM_P2
2023/11/03 00:05:47;;;;;;;8.90;4.60;;;;;;;10.66;91.87;96774.98;272065;1273;22652;-82
2023/11/03 00:12:07;;;;;;;8.70;5.30;;;;;;;10.67;92.46;96766.05;270104;1274;22374;-83
2023/11/03 00:18:41;;;;;;;7.80;5.20;;;;;;;10.68;93.29;96773.30;272640;1277;22220;-82
2023/11/03 00:24:44;;;;;;;8.70;5.30;;;;;;;10.64;93.94;96762.05;270463;1273;23430;-81
2023/11/03 00:30:46;;;;;;;9.10;4.60;;;;;;;10.59;94.27;96751.48;269609;1273;25505;-82
2023/11/03 00:36:49;;;;;;;8.50;4.40;;;;;;;10.53;94.96;96746.01;268733;1273;23741;-83
2023/11/03 00:42:59;;;;;;;8.80;5.00;;;;;;;10.51;95.57;96746.43;269932;1271;23303;-83
2023/11/03 00:49:12;;;;;;;6.60;5.00;;;;;;;10.47;96.38;96741.38;269430;1274;22261;-83
2023/11/03 00:55:19;;;;;;;8.40;5.40;;;;;;;10.45;97.17;96742.14;272240;1274;23050;-84
2023/11/03 01:01:21;;;;;;;8.60;5.70;;;;;;;10.43;97.56;96741.94;271870;1273;22556;-83
2023/11/03 01:07:23;;;;;;;11.10;6.00;;;;;;;10.41;97.65;96725.45;268858;1273;23552;-83
2023/11/03 01:13:27;;;;;;;9.30;5.70;;;;;;;10.32;98.72;96714.48;270966;1273;22538;-83
2023/11/03 01:19:30;;;;;;;8.80;5.20;;;;;;;10.27;99.68;96715.92;271415;1273;22405;-83
2023/11/03 01:25:36;;;;;;;;;;;;;;;10.23;99.98;96697.80;269878;1273;22507;-83
2023/11/03 01:31:41;;;;;;;12.70;7.40;;;;;;;10.14;100.00;96676.94;271830;1273;22214;-84
2023/11/03 01:37:45;;;;;;;10.10;6.40;;;;;;;10.11;100.00;96687.26;270437;1274;22408;-82
2023/11/03 01:44:01;;;;;;;8.70;6.60;;;;;;;10.14;100.00;96689.28;272226;1273;22220;-83
2023/11/03 01:50:07;;;;;;;10.40;6.10;;;;;;;10.19;100.00;96690.25;272425;1276;22217;-82
2023/11/03 01:56:10;;;;;;;8.70;5.70;;;;;;;10.25;100.00;96686.34;272110;1273;23157;-83
2023/11/03 02:02:12;;;;;;;11.30;5.20;;;;;;;10.33;100.00;96692.09;272503;1276;22195;-84
2023/11/03 02:08:14;;;;;;;10.10;5.90;;;;;;;10.40;100.00;96677.15;272139;1268;22360;-82
2023/11/03 02:14:22;;;;;;;9.10;5.30;;;;;;;10.42;100.00;96657.82;272184;1274;22216;-83
2023/11/03 02:21:12;;;;;;;6.00;4.90;;;;;;;10.43;100.00;96660.21;272166;1273;22850;-84
2023/11/03 02:27:14;;;;;;;10.10;6.00;;;;;;;10.46;100.00;96655.52;269470;1274;22451;-83
2023/11/03 02:33:16;;;;;;;10.40;5.60;;;;;;;10.44;100.00;96645.18;271536;1263;107830;-85
2023/11/03 02:39:40;;;;;;;7.80;5.60;;;;;;;10.43;100.00;96644.20;272699;1272;23016;-86
2023/11/03 02:46:07;;;;;;;9.40;5.30;;;;;;;10.43;100.00;96628.73;272432;1272;22197;-86
2023/11/03 02:52:29;;;;;;;6.90;5.00;;;;;;;10.46;100.00;96619.42;272714;1260;22311;-85
2023/11/03 02:58:37;;;;;;;9.20;4.40;;;;;;;10.48;100.00;96619.60;269990;1272;22576;-85
2023/11/03 03:04:39;;;;;;;5.70;4.20;;;;;;;10.49;100.00;96608.40;271698;1264;24824;-85
2023/11/03 03:11:21;;;;;;;6.70;4.00;;;;;;;10.56;100.00;96603.97;269863;1267;22565;-86
2023/11/03 03:17:31;;;;;;;6.50;4.40;;;;;;;10.69;100.00;96597.39;271215;1272;22517;-85
2023/11/03 03:23:33;;;;;;;10.90;4.80;;;;;;;10.78;100.00;96586.87;270973;1272;23053;-85
2023/11/03 03:29:55;;;;;;;4.60;3.30;;;;;;;10.90;100.00;96579.35;272563;1272;25892;-85
2023/11/03 03:35:57;;;;;;;4.30;2.90;;;;;;;11.11;100.00;96576.56;270432;1272;22563;-86
2023/11/03 03:42:19;;;;;;;6.10;3.50;;;;;;;11.29;100.00;96568.03;270041;1265;22508;-85
2023/11/03 03:49:03;;;;;;;6.40;2.70;;;;;;;11.41;100.00;96552.61;270509;1272;22305;-85
2023/11/03 03:55:22;;;;;;;4.40;2.90;;;;;;;11.49;100.00;96534.20;270579;1272;22487;-85
2023/11/03 04:01:24;;;;;;;6.80;3.10;;;;;;;11.50;100.00;96520.81;272547;1271;23761;-85
2023/11/03 04:07:26;;;;;;;5.70;2.90;;;;;;;11.43;100.00;96506.92;272249;1272;22444;-85
2023/11/03 04:13:28;;;;;;;6.50;3.10;;;;;;;11.33;100.00;96494.42;271491;1272;134847;-85
2023/11/03 04:19:37;;;;;;;6.50;3.30;;;;;;;11.24;100.00;96479.23;272514;1272;22230;-85
2023/11/03 04:25:59;;;;;;;5.00;3.00;;;;;;;11.18;100.00;96466.04;272663;1272;22187;-85
2023/11/03 04:32:02;;;;;;;6.80;3.20;;;;;;;11.08;100.00;96440.59;272948;1272;22215;-85
2023/11/03 04:38:24;;;;;;;7.20;3.80;;;;;;;11.08;100.00;96421.35;272856;1274;22228;-86
2023/11/03 04:44:34;;;;;;;5.40;3.40;;;;;;;11.08;100.00;96427.05;272754;1264;23264;-87
2023/11/03 04:50:35;;;;;;;8.30;3.30;;;;;;;11.09;100.00;96426.66;271772;1272;22494;-86
2023/11/03 04:56:57;;;;;;;5.90;3.30;;;;;;;11.01;100.00;96436.83;272586;1272;22224;-86
2023/11/03 05:03:19;;;;;;;4.80;3.40;;;;;;;10.91;100.00;96424.27;272414;1272;23376;-85
2023/11/03 05:09:21;;;;;;;11.90;3.30;;;;;;;10.80;100.00;96434.27;271377;1272;22226;-85
2023/11/03 05:15:23;;;;;;;4.10;3.00;;;;;;;10.68;100.00;96431.14;270679;1272;23573;-86
2023/11/03 05:21:25;;;;;;;5.70;2.90;;;;;;;10.73;100.00;96418.94;272491;1272;22552;-86
2023/11/03 05:27:28;;;;;;;5.70;2.80;;;;;;;10.95;100.00;96397.82;270757;1272;22287;-87
2023/11/03 05:33:44;;;;;;;7.30;3.40;;;;;;;11.15;100.00;96401.29;272696;1273;22278;-86
2023/11/03 05:39:47;;;;;;;5.90;2.60;;;;;;;11.19;100.00;96401.15;272066;1272;22257;-86
2023/11/03 05:46:29;;;;;;;4.50;3.20;;;;;;;11.19;100.00;96388.47;272140;1272;22196;-87
2023/11/03 05:52:32;;;;;;;5.20;2.30;;;;;;;11.22;100.00;96368.48;273054;1275;22233;-85
2023/11/03 05:58:55;;;;;;;6.90;2.70;;;;;;;11.22;100.00;96371.89;272899;1275;22295;-86
2023/11/03 06:04:57;;;;;;;4.10;2.80;;;;;;;11.26;100.00;96381.12;272566;1272;23516;-86
2023/11/03 06:11:34;;;;;;;3.30;2.20;;;;;;;11.31;100.00;96378.92;272651;1268;23362;-87
2023/11/03 06:17:35;;;;;;;5.20;2.40;;;;;;;11.49;100.00;96376.35;272889;1280;22251;-86
2023/11/03 06:24:18;;;;;;;5.20;2.50;;;;;;;11.66;100.00;96368.42;272166;1272;22720;-87
2023/11/03 06:30:22;;;;;;;3.80;2.00;;;;;;;11.79;100.00;96392.50;272469;1272;23144;-84
2023/11/03 06:36:49;;;;;;;3.80;2.40;;;;;;;11.77;100.00;96399.45;271039;1272;22582;-85
2023/11/03 06:42:51;;;;;;;4.90;2.30;;;;;;;11.69;100.00;96371.37;272456;1272;24245;-86
2023/11/03 06:48:55;;;;;;;5.50;3.10;;;;;;;11.62;100.00;96361.04;272440;1272;23076;-85
2023/11/03 06:54:58;;;;;;;5.50;2.80;;;;;;;11.50;100.00;96375.21;270967;1272;22554;-84
2023/11/03 07:01:00;;;;;;;5.00;3.00;;;;;;;11.50;100.00;96391.52;271103;1263;22543;-86
2023/11/03 07:07:18;;;;;;;4.50;2.40;;;;;;;11.56;100.00;96394.82;272797;1274;23473;-88
2023/11/03 07:13:43;;;;;;;6.40;2.90;;;;;;;11.86;100.00;96373.36;272996;1275;23528;-87
2023/11/03 07:20:05;;;;;;;5.60;2.20;;;;;;;12.30;100.00;96378.95;272697;1272;22226;-86
2023/11/03 07:27:07;;;;;;;7.20;2.50;;;;;;;12.49;100.00;96376.57;272887;1274;22288;-85
2023/11/03 07:33:10;;;;;;;5.50;2.70;;;;;;;12.53;99.84;96378.20;272869;1272;22852;-86
2023/11/03 07:39:15;;;;;;;4.90;2.80;;;;;;;12.54;99.76;96367.75;272726;1272;22242;-85
2023/11/03 07:45:35;;;;;;;6.80;4.20;;;;;;;12.51;99.94;96357.77;273035;1272;22663;-85
2023/11/03 07:52:04;;;;;;;8.20;3.30;;;;;;;12.49;100.00;96351.19;272778;1272;23012;-85
2023/11/03 07:58:13;;;;;;;6.00;2.90;;;;;;;12.51;100.00;96348.59;272892;1272;22214;-85
2023/11/03 08:04:36;;;;;;;4.70;3.30;;;;;;;12.58;99.98;96338.70;272499;1272;22325;-85
2023/11/03 08:11:03;;;;;;;4.00;2.50;;;;;;;12.62;100.00;96338.29;273077;1272;22172;-85
2023/11/03 08:17:10;;;;;;;3.80;2.10;;;;;;;12.75;99.97;96335.59;271639;1272;22280;-86
2023/11/03 08:23:54;;;;;;;4.90;2.20;;;;;;;12.91;99.77;96327.13;272342;1272;22351;-84
2023/11/03 08:30:25;;;;;;;4.30;1.80;;;;;;;13.06;99.33;96319.61;273130;1264;22156;-85
2023/11/03 08:36:47;;;;;;;3.70;2.40;;;;;;;13.15;99.04;96307.09;272879;1272;23203;-84
2023/11/03 08:42:50;;;;;;;5.60;2.90;;;;;;;13.21;99.18;96304.69;272972;1274;22206;-85
2023/11/03 08:49:32;;;;;;;6.10;2.30;;;;;;;13.28;99.29;96299.69;272328;1271;23363;-86
2023/11/03 08:55:54;;;;;;;5.20;2.70;;;;;;;13.40;99.59;96289.29;272845;1272;22304;-85
2023/11/03 09:01:56;;;;;;;6.20;2.50;;;;;;;13.50;99.33;96285.01;271526;1272;25467;-85
2023/11/03 09:07:58;;;;;;;3.80;2.30;;;;;;;13.54;98.73;96285.30;272322;1272;22285;-84
2023/11/03 09:14:40;;;;;;;6.60;2.30;;;;;;;13.57;98.77;96267.48;271831;1272;22229;-84
2023/11/03 09:20:42;;;;;;;6.40;2.00;;;;;;;13.59;99.02;96263.63;272929;1272;22535;-85
2023/11/03 09:27:50;;;;;;;2.80;1.60;;;;;;;13.63;98.88;96243.34;271665;1272;22217;-87
2023/11/03 09:34:14;;;;;;;2.30;1.30;;;;;;;13.98;95.09;96225.00;272967;1272;23195;-86
2023/11/03 09:40:17;;;;;;;3.90;2.20;;;;;;;14.32;89.66;96209.13;271465;1268;23594;-87
2023/11/03 09:46:20;;;;;;;5.70;1.90;;;;;;;14.47;89.78;96210.10;271005;1272;22552;-86
2023/11/03 09:52:23;;;;;;;3.00;1.90;;;;;;;14.50;89.90;96206.56;270220;1266;23547;-86
2023/11/03 09:58:34;;;;;;;6.90;1.70;;;;;;;14.46;90.47;96200.93;270914;1272;22544;-86
2023/11/03 10:04:38;;;;;;;6.30;2.60;;;;;;;14.39;90.55;96193.03;271887;1272;23216;-84
2023/11/03 10:10:58;;;;;;;8.80;4.60;;;;;;;14.35;88.85;96173.92;272593;1272;22414;-84
2023/11/03 10:17:00;;;;;;;4.00;2.00;;;;;;;14.39;86.51;96150.15;271313;1266;22250;-86
2023/11/03 10:23:45;;;;;;;3.60;2.10;;;;;;;14.44;86.27;96134.28;270286;1272;24091;-87
2023/11/03 10:30:11;;;;;;;6.70;2.60;;;;;;;14.42;86.60;96131.61;271846;1272;22229;-88
2023/11/03 10:36:13;;;;;;;6.40;2.50;;;;;;;14.40;86.74;96120.48;272717;1272;23634;-84
2023/11/03 10:42:16;;;;;;;5.00;2.20;;;;;;;14.36;87.03;96107.77;272988;1280;22278;-85
2023/11/03 10:48:25;;;;;;;5.70;2.30;;;;;;;14.37;86.97;96099.62;272554;1272;22241;-86
2023/11/03 10:54:29;;;;;;;7.20;2.50;;;;;;;14.37;87.07;96093.16;273138;1280;22319;-84
2023/11/03 11:01:01;;;;;;;4.80;2.30;;;;;;;14.39;87.34;96083.73;271958;1272;22174;-85
2023/11/03 11:07:14;;;;;;;4.10;2.30;;;;;;;14.45;87.49;96084.61;271213;1272;22408;-85
2023/11/03 11:13:25;;;;;;;5.40;2.20;;;;;;;14.48;88.03;96083.48;272878;1280;22216;-85
2023/11/03 11:19:41;;;;;;;3.70;2.40;;;;;;;14.42;88.48;96068.45;272967;1272;23356;-85
2023/11/03 11:26:20;;;;;;;6.50;2.00;;;;;;;14.32;88.89;96056.63;272879;1276;22184;-86
2023/11/03 11:32:53;;;;;;;5.50;2.20;;;;;;;14.27;89.44;96061.63;272845;1272;22261;-86
2023/11/03 11:39:23;;;;;;;;;;;;;;;;;;;;;
2023/11/03 11:46:07;;;;;;;8.50;3.80;;;;;;;14.19;90.51;96074.20;272571;1272;22970;-86
2023/11/03 11:52:36;;;;;;;6.20;3.20;;;;;;;14.26;90.55;96086.66;272990;1275;22219;-86
2023/11/03 11:58:38;;;;;;;8.60;3.00;;;;;;;14.31;91.00;96080.09;272914;1272;22163;-86
2023/11/03 12:05:21;;;;;;;4.80;2.80;;;;;;;14.35;91.21;96073.31;273150;1279;22226;-86
2023/11/03 12:11:24;;;;;;;9.40;3.30;;;;;;;14.41;91.58;96090.64;272909;1272;22919;-86
2023/11/03 12:17:43;;;;;;;6.00;3.40;;;;;;;14.44;91.70;96096.67;272969;1276;22388;-86
2023/11/03 12:24:05;;;;;;;7.80;2.80;;;;;;;14.47;91.80;96101.48;272883;1270;22201;-86
2023/11/03 12:30:28;;;;;;;8.60;3.30;;;;;;;14.46;92.34;96105.80;272900;1272;23387;-87
2023/11/03 12:36:30;;;;;;;11.70;3.50;;;;;;;14.32;92.98;96103.41;272255;1265;22213;-88
2023/11/03 12:42:41;;;;;;;6.60;3.50;;;;;;;14.15;94.42;96087.87;272372;1272;22429;-87
2023/11/03 12:48:43;;;;;;;7.00;4.00;;;;;;;14.02;96.06;96071.13;272342;1272;23022;-86
2023/11/03 12:55:05;;;;;;;7.60;3.50;;;;;;;13.89;96.12;96042.00;272316;1272;22336;-86
2023/11/03 13:01:27;;;;;;;6.30;3.70;;;;;;;13.85;96.17;96031.84;272689;1275;22205;-86
2023/11/03 13:08:01;;;;;;;11.60;5.40;;;;;;;13.82;96.65;96016.67;272912;1272;22232;-85
2023/11/03 13:14:26;;;;;;;6.40;4.00;;;;;;;13.80;97.08;96000.15;272747;1272;22190;-87
2023/11/03 13:20:46;;;;;;;6.20;2.90;;;;;;;13.84;97.26;95978.38;272903;1272;22644;-87
2023/11/03 13:26:48;;;;;;;6.00;3.80;;;;;;;13.79;97.83;95948.63;272454;1272;22211;-87
2023/11/03 13:32:49;;;;;;;4.10;2.70;;;;;;;13.74;97.92;95976.63;272363;1272;22192;-86
2023/11/03 13:38:54;;;;;;;5.20;3.10;;;;;;;13.78;97.87;95978.20;272420;1272;22235;-87
2023/11/03 13:45:21;;;;;;;3.70;2.60;;;;;;;13.81;97.27;95992.41;272596;1272;22304;-87
2023/11/03 13:51:28;;;;;;;3.10;2.50;;;;;;;13.82;96.42;96019.54;272340;1272;23147;-86
2023/11/03 13:57:31;;;;;;;5.30;2.90;;;;;;;13.84;95.66;96044.61;272070;1272;22553;-87
2023/11/03 14:03:35;;;;;;;5.60;2.70;;;;;;;13.88;94.85;96029.01;272438;1272;22468;-87
2023/11/03 14:10:05;;;;;;;4.20;2.00;;;;;;;13.89;94.40;95989.25;271610;1268;24378;-87
2023/11/03 14:16:23;;;;;;;2.50;2.00;;;;;;;13.88;94.32;95974.08;272839;1272;22171;-87
2023/11/03 14:22:32;;;;;;;2.70;2.10;;;;;;;13.84;94.43;95954.55;272663;1272;23370;-88
2023/11/03 14:28:55;;;;;;;6.40;2.90;;;;;;;13.82;94.28;95979.59;272516;1275;22203;-87
2023/11/03 14:34:58;;;;;;;5.20;3.20;;;;;;;13.81;94.05;95973.42;272467;1272;22397;-88
2023/11/03 14:41:24;;;;;;;7.20;3.30;;;;;;;13.81;93.77;95973.52;272564;1272;23963;-87
2023/11/03 14:47:42;;;;;;;3.50;2.10;;;;;;;13.80;93.13;96002.70;271603;1265;22210;-88
2023/11/03 14:53:45;;;;;;;3.20;2.20;;;;;;;13.80;92.89;96017.99;272228;1272;23587;-87
2023/11/03 14:59:47;;;;;;;6.00;2.40;;;;;;;13.81;92.76;96017.17;272357;1272;22296;-89
2023/11/03 15:06:11;;;;;;;4.40;2.60;;;;;;;13.79;92.68;96013.91;272704;1275;22895;-86
2023/11/03 15:12:32;;;;;;;4.00;2.50;;;;;;;13.73;92.84;96007.24;272822;1272;22212;-87
2023/11/03 15:19:18;;;;;;;7.90;3.70;;;;;;;13.69;92.89;96008.70;272697;1272;22182;-88
2023/11/03 15:25:38;;;;;;;5.70;2.50;;;;;;;13.66;92.89;96008.34;272324;1272;23316;-87
2023/11/03 15:31:41;;;;;;;4.30;2.60;;;;;;;13.63;92.88;95996.06;272287;1272;22980;-86
2023/11/03 15:37:43;;;;;;;5.10;2.80;;;;;;;13.60;92.82;96000.39;272204;1272;22239;-87
2023/11/03 15:43:45;;;;;;;6.00;3.00;;;;;;;13.58;92.96;95988.60;272258;1272;22284;-86
2023/11/03 15:49:50;;;;;;;7.00;3.10;;;;;;;13.54;92.99;95981.73;272318;1272;22329;-88
2023/11/03 15:55:55;;;;;;;8.00;3.80;;;;;;;13.51;93.11;95968.13;272162;1272;22401;-86
2023/11/03 16:01:59;;;;;;;7.50;3.70;;;;;;;13.48;93.19;95928.34;272367;1272;22508;-86
2023/11/03 16:08:08;;;;;;;6.10;3.40;;;;;;;13.43;93.24;95964.30;272820;1272;23086;-86
2023/11/03 16:14:39;;;;;;;7.30;3.70;;;;;;;13.39;93.42;96019.45;272667;1272;139832;-89
2023/11/03 16:21:02;;;;;;;12.30;7.20;;;;;;;13.40;93.56;96043.75;271763;1272;22541;-87
2023/11/03 16:27:04;;;;;;;8.70;3.90;;;;;;;13.43;93.33;96064.21;270997;1272;23080;-86
2023/11/03 16:33:06;;;;;;;12.20;5.50;;;;;;;13.47;93.34;96065.52;270885;1272;22447;-86
2023/11/03 16:39:08;;;;;;;10.20;5.00;;;;;;;13.46;93.25;96059.44;271216;1272;22408;-87
2023/11/03 16:45:11;;;;;;;10.40;5.50;;;;;;;13.44;93.25;96049.74;271067;1272;25236;-86
2023/11/03 16:51:14;;;;;;;11.80;5.80;;;;;;;13.44;93.13;96054.99;271274;1272;22338;-86
2023/11/03 16:57:17;;;;;;;8.00;4.60;;;;;;;13.49;92.91;96053.75;271038;1272;22528;-86
2023/11/03 17:03:23;;;;;;;8.60;4.80;;;;;;;13.50;92.93;96021.61;271955;1272;23216;-87
2023/11/03 17:09:27;;;;;;;10.10;5.40;;;;;;;13.52;92.69;96015.05;271047;1264;22583;-86
2023/11/03 17:15:29;;;;;;;9.50;5.50;;;;;;;13.47;92.76;96025.24;270054;1272;22403;-86
2023/11/03 17:21:31;;;;;;;11.70;5.50;;;;;;;13.41;92.82;96056.47;271862;1268;22692;-85
2023/11/03 17:28:11;;;;;;;9.20;4.00;;;;;;;13.41;92.97;96079.79;271239;1272;22530;-86
2023/11/03 17:34:13;;;;;;;8.30;4.20;;;;;;;13.42;92.97;96094.97;270604;1272;24028;-86
2023/11/03 17:40:36;;;;;;;11.80;3.70;;;;;;;13.48;92.77;96112.99;270821;1272;22257;-88
2023/11/03 17:46:38;;;;;;;6.70;3.30;;;;;;;13.52;92.50;96117.90;272476;1273;22867;-87
2023/11/03 17:53:00;;;;;;;6.00;3.50;;;;;;;13.55;92.38;96124.91;272786;1272;23448;-89
2023/11/03 17:59:38;;;;;;;7.90;3.90;;;;;;;13.59;92.11;96153.48;272496;1272;23117;-87
2023/11/03 18:06:20;;;;;;;7.00;3.30;;;;;;;13.47;92.87;96173.08;272866;1272;22293;-87
2023/11/03 18:13:03;;;;;;;6.10;3.30;;;;;;;13.26;93.16;96171.55;272672;1263;22822;-89
2023/11/03 18:19:25;;;;;;;6.60;3.00;;;;;;;13.03;93.18;96171.52;272857;1273;22426;-87
2023/11/03 18:25:47;;;;;;;3.40;1.60;;;;;;;12.90;92.40;96179.53;272523;1272;23273;-87
2023/11/03 18:31:50;;;;;;;3.70;1.20;;;;;;;12.82;91.17;96185.19;272025;1272;22539;-86
2023/11/03 18:38:00;;;;;;;1.80;0.60;;;;;;;12.82;89.90;96183.30;272213;1272;22393;-86
2023/11/03 18:44:52;;;;;;;2.50;1.20;;;;;;;12.78;89.18;96188.52;272809;1272;22190;-87
2023/11/03 18:51:54;;;;;;;3.50;0.80;;;;;;;12.75;88.44;96191.45;272742;1272;22252;-87
2023/11/03 18:58:37;;;;;;;1.00;0.50;;;;;;;12.63;87.07;96197.83;272382;1272;22157;-88
2023/11/03 19:04:54;;;;;;;1.90;0.70;;;;;;;12.47;85.29;96204.51;272463;1272;22185;-86
2023/11/03 19:11:36;;;;;;;2.80;0.70;;;;;;;12.36;84.32;96207.77;272785;1273;22196;-86
2023/11/03 19:17:55;;;;;;;2.10;0.70;;;;;;;12.25;83.65;96216.23;272393;1272;22934;-86
2023/11/03 19:24:41;;;;;;;2.00;0.60;;;;;;;12.15;83.30;96236.98;272946;1272;22418;-87
2023/11/03 19:31:22;;;;;;;3.10;0.80;;;;;;;12.05;82.85;96267.70;272615;1272;22243;-87
2023/11/03 19:38:00;;;;;;;2.20;0.60;;;;;;;11.94;82.57;96291.05;272791;1272;22376;-88
2023/11/03 19:44:03;;;;;;;1.40;0.80;;;;;;;11.84;82.18;96306.40;272609;1272;22645;-87
2023/11/03 19:50:05;;;;;;;1.60;0.90;;;;;;;11.74;81.82;96322.42;272948;1278;22305;-87
2023/11/03 19:56:47;;;;;;;3.30;0.80;;;;;;;11.65;81.56;96338.00;272793;1275;22222;-87
2023/11/03 20:03:25;;;;;;;1.80;0.70;;;;;;;11.56;81.68;96352.08;273011;1279;22228;-87
2023/11/03 20:09:49;;;;;;;2.20;1.10;;;;;;;11.41;82.02;96365.83;272937;1272;22222;-87
2023/11/03 20:16:34;;;;;;;4.80;1.00;;;;;;;11.22;82.28;96376.09;272614;1272;22184;-85
2023/11/03 20:22:59;;;;;;;2.70;1.10;;;;;;;11.04;83.07;96401.92;271493;1272;23099;-85
2023/11/03 20:29:20;;;;;;;1.60;0.80;;;;;;;10.95;83.67;96422.25;272422;1272;22291;-88
2023/11/03 20:35:24;;;;;;;4.10;1.10;;;;;;;10.92;84.06;96440.47;272751;1272;22487;-85
2023/11/03 20:41:50;;;;;;;6.60;1.00;;;;;;;10.97;84.47;96457.55;272775;1277;22578;-87
2023/11/03 20:47:52;;;;;;;4.40;1.50;;;;;;;10.94;85.03;96464.96;272653;1272;22167;-85
2023/11/03 20:54:13;;;;;;;6.10;1.60;;;;;;;10.92;85.67;96462.54;272397;1272;22203;-86
2023/11/03 21:00:16;;;;;;;3.10;1.80;;;;;;;10.80;86.27;96474.48;272786;1272;22231;-86
2023/11/03 21:06:58;;;;;;;5.30;1.40;;;;;;;10.69;86.86;96493.80;272887;1272;22239;-88
2023/11/03 21:13:03;;;;;;;2.60;0.90;;;;;;;10.60;87.46;96508.35;272976;1272;22225;-86
2023/11/03 21:19:06;;;;;;;6.60;0.70;;;;;;;10.49;87.74;96531.18;272936;1267;22299;-87
2023/11/03 21:25:11;;;;;;;2.80;0.90;;;;;;;10.33;87.56;96540.76;273044;1279;23640;-88
2023/11/03 21:31:34;;;;;;;1.80;0.60;;;;;;;10.28;87.28;96548.64;272378;1272;22240;-87
2023/11/03 21:37:39;;;;;;;0.70;0.30;;;;;;;10.22;86.98;96561.45;272608;1273;22276;-86
2023/11/03 21:43:45;;;;;;;0.70;0.40;;;;;;;10.17;86.85;96580.34;270099;1273;22578;-85
2023/11/03 21:50:05;;;;;;;0.30;0.30;;;;;;;10.12;86.77;96584.36;271821;1273;22548;-86
2023/11/03 21:56:48;;;;;;;0.30;0.30;;;;;;;10.05;86.77;96583.97;272131;1273;23712;-86
2023/11/03 22:03:15;;;;;;;1.10;0.40;;;;;;;9.97;86.93;96598.45;271793;1272;22549;-86
2023/11/03 22:25:42;;;;;;;2.50;0.60;;;;;;;10.04;85.32;96657.65;264831;1295;549971;-82
2023/11/03 22:31:46;;;;;;;1.50;0.40;;;;;;;9.88;84.17;96693.54;271317;1276;22466;-82
2023/11/03 22:37:48;;;;;;;0.60;0.30;;;;;;;9.68;83.64;96718.18;271461;1279;23254;-82
2023/11/03 22:43:50;;;;;;;0.70;0.20;;;;;;;9.51;83.61;96742.48;271570;1273;22227;-82
2023/11/03 22:49:52;;;;;;;0.60;0.20;;;;;;;9.31;83.73;96754.52;271496;1270;22776;-81
2023/11/03 22:55:53;;;;;;;0.40;0.30;;;;;;;9.11;83.86;96762.73;271605;1278;22526;-82
2023/11/03 23:01:55;;;;;;;0.60;0.20;;;;;;;8.98;83.72;96766.38;271727;1273;22316;-82
2023/11/03 23:07:57;;;;;;;0.30;0.10;;;;;;;8.89;83.65;96772.92;271619;1279;22230;-82
2023/11/03 23:13:59;;;;;;;0.50;0.30;;;;;;;8.78;83.74;96787.64;271433;1279;22447;-83
2023/11/03 23:20:03;;;;;;;0.50;0.30;;;;;;;8.71;83.85;96808.08;271442;1279;23194;-81
2023/11/03 23:26:05;;;;;;;2.20;0.30;;;;;;;8.67;83.84;96818.98;271494;1279;22453;-82
2023/11/03 23:32:07;;;;;;;1.00;0.30;;;;;;;8.61;83.98;96830.21;271491;1279;22200;-82
2023/11/03 23:38:08;;;;;;;1.10;0.20;;;;;;;8.58;83.96;96852.55;271053;1279;22375;-82
2023/11/03 23:44:10;;;;;;;1.70;0.40;;;;;;;8.53;84.30;96864.09;271321;1278;22400;-82
2023/11/03 23:50:12;;;;;;;0.40;0.30;;;;;;;8.47;84.43;96871.88;271424;1279;23662;-82
2023/11/03 23:56:14;;;;;;;0.20;0.20;;;;;;;8.41;84.60;96882.49;271463;1279;22404;-81
